Sigfox identifier Datetime Temperature Humidity SNR
003C0A6D 2018-10-09 08:38:27 20.6 37 13
003C0A6D 2018-10-09 07:32:56 20.5 37 12.6
003C0A6D 2018-10-09 06:27:25 20.5 37 12.4
003C0A6D 2018-10-09 05:21:52 20.5 37 12
003C0A6D 2018-10-09 02:05:22 20.5 37 11.8
003C0A6D 2018-10-09 00:59:51 20.5 37 11.8
003C0A6D 2018-10-08 23:54:17 20.5 37 11.7
003C0A6D 2018-10-08 22:48:45 20.5 37 11.3
003C0A6D 2018-10-08 20:37:43 20.5 37 11.2
003C0A6D 2018-10-08 19:32:12 20.5 36 11.1
003C0A6D 2018-10-08 18:26:41 20.4 36 11.7
003C0A6D 2018-10-08 17:21:10 20.3 36 11.7
003C0A6D 2018-10-08 15:10:11 20.3 36 11.7
003C0A6D 2018-10-08 12:59:05 20.4 35 12
003C0A6D 2018-10-08 11:53:30 20.3 35 12
003C0A6D 2018-10-08 09:42:28 20.3 30 12
003C0A6D 2018-10-08 08:36:54 20.2 30 12.4
003C0A6D 2018-10-08 07:31:23 20.2 32 12.4
003C0A6D 2018-10-08 06:25:50 20.3 32 12.4
003C0A6D 2018-10-08 04:14:50 20.2 33 12.2
003C0A6D 2018-10-08 03:09:14 20.3 34 12
003C0A6D 2018-10-08 02:03:41 20.3 34 12
003C0A6D 2018-10-08 00:58:08 20.3 35 12
003C0A6D 2018-10-07 23:52:38 20.3 36 12.4
003C0A6D 2018-10-07 22:47:03 20.3 36 12.3
003C0A6D 2018-10-07 21:41:30 20.3 37 12.4
003C0A6D 2018-10-07 20:35:54 20.4 38 12.5
003C0A6D 2018-10-07 19:30:23 20.5 38 12.4
003C0A6D 2018-10-07 18:24:46 20.5 38 12.2
003C0A6D 2018-10-07 17:19:17 20.5 38 12.8
003C0A6D 2018-10-07 16:13:46 20.4 38 12.7
003C0A6D 2018-10-07 15:08:11 20.5 38 12.5
003C0A6D 2018-10-07 12:57:04 20.5 38 12.9
003C0A6D 2018-10-07 11:51:30 20.4 38 13.3
003C0A6D 2018-10-07 10:45:57 20.5 38 13.4
003C0A6D 2018-10-07 09:40:23 20.5 38 13
003C0A6D 2018-10-07 08:34:48 20.5 38 13
003C0A6D 2018-10-07 07:29:11 20.5 38 13
003C0A6D 2018-10-07 06:23:38 20.5 38 12.8
003C0A6D 2018-10-07 05:18:03 20.5 39 17.7
003C0A6D 2018-10-07 04:12:30 20.5 39 17.8
003C0A6D 2018-10-07 03:06:54 20.6 39 17.7
003C0A6D 2018-10-07 02:01:18 20.6 39 17.8
003C0A6D 2018-10-07 00:55:43 20.6 40 17.8
003C0A6D 2018-10-06 23:50:11 20.7 40 17.7
003C0A6D 2018-10-06 22:44:33 20.7 40 17.7
003C0A6D 2018-10-06 21:39:00 20.7 40 17.8
003C0A6D 2018-10-06 20:33:23 20.7 40 17.8
003C0A6D 2018-10-06 19:27:51 20.7 40 17.7
003C0A6D 2018-10-06 18:22:16 20.7 39 17.8
003C0A6D 2018-10-06 17:16:40 20.7 39 18.2
003C0A6D 2018-10-06 16:11:05 20.7 40 18.4
003C0A6D 2018-10-06 15:05:31 20.7 40 18.5
003C0A6D 2018-10-06 13:59:55 20.7 40 18.7
003C0A6D 2018-10-06 12:54:21 20.7 40 18.8
003C0A6D 2018-10-06 11:48:45 20.7 39 18.9
003C0A6D 2018-10-06 10:43:07 20.7 39 19.1
003C0A6D 2018-10-06 09:37:31 20.7 39 19.2
003C0A6D 2018-10-06 08:31:58 20.7 39 19.3
003C0A6D 2018-10-06 07:26:23 20.9 40 19.4
003C0A6D 2018-10-06 06:20:42 20.9 40 19.7
003C0A6D 2018-10-06 05:15:07 20.9 40 20
003C0A6D 2018-10-06 04:09:30 20.9 41 20.3
003C0A6D 2018-10-06 03:04:01 20.9 41 20.5
003C0A6D 2018-10-06 01:58:21 20.9 42 15.1
003C0A6D 2018-10-06 00:52:49 21 42 14.9
003C0A6D 2018-10-05 23:47:08 21.1 43 15.1
003C0A6D 2018-10-05 22:41:30 21.1 43 15.3
003C0A6D 2018-10-05 21:35:53 21.1 44 15.8
003C0A6D 2018-10-05 20:30:20 21.1 45 16.4
003C0A6D 2018-10-05 19:24:46 21.3 45 17
003C0A6D 2018-10-05 18:19:10 21.3 45 17.5
003C0A6D 2018-10-05 17:13:31 21.4 46 18.6
003C0A6D 2018-10-05 16:07:59 21.4 47 20.3
003C0A6D 2018-10-05 15:02:19 21.5 47 22.9
003C0A6D 2018-10-05 13:56:41 21.1 60 0